Time;durP1;ratioP1;P1;durP2;ratioP2;P2;SDS_P1;SDS_P2;PMS_P1;PMS_P2;Temp;Humidity;BMP_temperature;BMP_pressure;BME280_temperature;BME280_humidity;BME280_pressure;Samples;Min_cycle;Max_cycle;Signal;HPM_P1;HPM_P2
2023/09/23 00:00:47;;;;;;;20.25;18.25;;;;;;;10.15;100.00;100688.66;5088161;28;20027;-68
2023/09/23 00:03:12;;;;;;;24.23;21.43;;;;;;;10.18;100.00;100679.50;5090987;28;20515;-68
2023/09/23 00:05:39;;;;;;;23.85;21.20;;;;;;;10.19;100.00;100689.94;5091251;28;20024;-68
2023/09/23 00:08:06;;;;;;;25.05;21.90;;;;;;;10.20;100.00;100693.44;5089149;28;20392;-68
2023/09/23 00:10:34;;;;;;;27.10;23.13;;;;;;;10.18;100.00;100690.94;5085878;28;20660;-68
2023/09/23 00:13:00;;;;;;;27.08;24.25;;;;;;;10.17;100.00;100694.59;5088331;28;20028;-68
2023/09/23 00:15:25;;;;;;;27.85;24.80;;;;;;;10.20;100.00;100701.41;5085768;28;20024;-68
2023/09/23 00:17:53;;;;;;;28.27;25.30;;;;;;;10.20;100.00;100690.78;5084261;28;20042;-68
2023/09/23 00:20:19;;;;;;;28.60;25.63;;;;;;;10.20;100.00;100696.09;5097785;28;20125;-68
2023/09/23 00:22:48;;;;;;;29.40;25.63;;;;;;;10.19;100.00;100689.13;5091846;28;20521;-68
2023/09/23 00:25:16;;;;;;;29.42;25.95;;;;;;;10.17;100.00;100694.59;5082121;28;20024;-68
2023/09/23 00:27:41;;;;;;;29.63;26.27;;;;;;;10.18;100.00;100690.94;5090580;28;20104;-68
2023/09/23 00:30:08;;;;;;;30.33;27.08;;;;;;;10.19;100.00;100697.09;5081886;28;20060;-68
2023/09/23 00:32:34;;;;;;;28.48;25.58;;;;;;;10.18;100.00;100698.09;5088031;28;20031;-68
2023/09/23 00:35:00;;;;;;;30.40;26.85;;;;;;;10.16;100.00;100700.09;5092355;28;20035;-68
2023/09/23 00:37:26;;;;;;;30.73;27.42;;;;;;;10.20;100.00;100709.34;5091879;28;20024;-68
2023/09/23 00:39:51;;;;;;;29.95;26.73;;;;;;;10.19;100.00;100703.22;5084379;28;20020;-68
2023/09/23 00:42:22;;;;;;;29.50;26.40;;;;;;;10.18;100.00;100709.53;5089031;28;20054;-68
2023/09/23 00:44:47;;;;;;;30.05;26.83;;;;;;;10.20;100.00;100710.22;5075600;28;20032;-68
2023/09/23 00:47:13;;;;;;;29.98;26.75;;;;;;;10.18;100.00;100704.22;5086942;28;20370;-68
2023/09/23 00:49:41;;;;;;;29.38;26.15;;;;;;;10.20;100.00;100706.69;5089628;28;20046;-68
2023/09/23 00:52:07;;;;;;;28.98;25.80;;;;;;;10.19;100.00;100708.53;5082055;28;20097;-68
2023/09/23 00:54:35;;;;;;;30.35;25.90;;;;;;;10.20;100.00;100710.22;5085337;28;20024;-68
2023/09/23 00:57:02;;;;;;;30.40;26.38;;;;;;;10.23;100.00;100720.47;5105115;28;20485;-68
2023/09/23 00:59:29;;;;;;;29.95;25.50;;;;;;;10.26;100.00;100715.84;5094462;28;20020;-68
2023/09/23 01:01:56;;;;;;;30.15;25.35;;;;;;;10.26;100.00;100715.84;5085935;28;20131;-69
2023/09/23 01:04:22;;;;;;;28.73;24.20;;;;;;;10.29;100.00;100718.13;5090917;28;20145;-68
2023/09/23 01:06:48;;;;;;;27.00;23.45;;;;;;;10.29;100.00;100715.47;5083703;28;20067;-68
2023/09/23 01:09:20;;;;;;;27.20;23.23;;;;;;;10.29;100.00;100712.84;5089683;28;20031;-68
2023/09/23 01:11:46;;;;;;;26.92;23.00;;;;;;;10.31;100.00;100719.63;5084506;28;20630;-68
2023/09/23 01:14:11;;;;;;;26.95;21.85;;;;;;;10.33;100.00;100712.31;5078114;28;20024;-68
2023/09/23 01:16:37;;;;;;;27.15;22.00;;;;;;;10.36;100.00;100721.75;5088114;28;20541;-68
2023/09/23 01:19:03;;;;;;;27.65;22.10;;;;;;;10.37;100.00;100720.75;5088033;28;20036;-68
2023/09/23 01:21:28;;;;;;;26.67;21.08;;;;;;;10.38;100.00;100725.06;5095733;28;20032;-69
2023/09/23 01:23:53;;;;;;;27.88;21.42;;;;;;;10.40;100.00;100725.72;5085042;28;20024;-68
2023/09/23 01:26:19;;;;;;;28.35;21.00;;;;;;;10.42;100.00;100739.69;5082107;28;20030;-68
2023/09/23 01:28:47;;;;;;;28.67;22.15;;;;;;;10.42;100.00;100735.19;5083400;28;20030;-68
2023/09/23 01:31:12;;;;;;;28.13;20.60;;;;;;;10.42;100.00;100744.97;5088450;28;20520;-68
2023/09/23 01:33:38;;;;;;;27.95;20.58;;;;;;;10.43;100.00;100746.63;5089198;28;20051;-68
2023/09/23 01:36:05;;;;;;;27.23;20.20;;;;;;;10.44;100.00;100743.81;5084675;28;20024;-68
2023/09/23 01:38:31;;;;;;;27.60;20.13;;;;;;;10.46;100.00;100738.31;5081270;28;20024;-68
2023/09/23 01:40:56;;;;;;;28.75;20.23;;;;;;;10.48;100.00;100744.28;5088957;28;20065;-68
2023/09/23 01:43:22;;;;;;;29.23;19.90;;;;;;;10.48;100.00;100746.94;5083945;28;20067;-68
2023/09/23 01:45:48;;;;;;;26.85;19.38;;;;;;;10.49;100.00;100746.78;5081459;28;20036;-67
2023/09/23 01:48:14;;;;;;;29.33;18.83;;;;;;;10.50;100.00;100748.44;5082313;28;20077;-68
2023/09/23 01:50:39;;;;;;;27.52;18.55;;;;;;;10.50;100.00;100748.44;5093262;28;20392;-69
2023/09/23 01:53:05;;;;;;;26.20;17.42;;;;;;;10.52;100.00;100756.22;5087143;28;20058;-68
2023/09/23 01:55:30;;;;;;;26.13;17.50;;;;;;;10.50;100.00;100753.75;5084665;28;20035;-69
2023/09/23 01:57:56;;;;;;;25.48;15.93;;;;;;;10.53;100.00;100755.22;5088726;28;20445;-68
2023/09/23 02:00:27;;;;;;;24.25;16.67;;;;;;;10.53;100.00;100761.34;5089248;28;20023;-68
2023/09/23 02:02:56;;;;;;;23.40;15.25;;;;;;;10.54;100.00;100754.22;5096577;28;20052;-68
2023/09/23 02:05:24;;;;;;;23.48;14.30;;;;;;;10.54;100.00;100762.19;5093245;28;20050;-69
2023/09/23 02:07:50;;;;;;;19.60;13.15;;;;;;;10.54;100.00;100770.97;5091395;28;20119;-68
2023/09/23 02:10:16;;;;;;;26.30;12.95;;;;;;;10.57;100.00;100769.81;5088052;28;20082;-69
2023/09/23 02:12:42;;;;;;;19.83;12.20;;;;;;;10.57;100.00;100775.13;5087729;28;20036;-68
2023/09/23 02:15:08;;;;;;;19.40;12.38;;;;;;;10.56;100.00;100773.44;5078580;28;20131;-68
2023/09/23 02:17:36;;;;;;;21.17;12.02;;;;;;;10.48;100.00;100761.03;5090386;28;20017;-68
2023/09/23 02:20:05;;;;;;;17.85;11.52;;;;;;;10.53;100.00;100774.63;5088779;28;20077;-68
2023/09/23 02:22:31;;;;;;;20.40;11.23;;;;;;;10.53;100.00;100774.63;5086426;28;20055;-68
2023/09/23 02:24:56;;;;;;;19.20;10.93;;;;;;;10.53;100.00;100773.81;5093734;28;20064;-69
2023/09/23 02:27:21;;;;;;;18.73;10.63;;;;;;;10.50;100.00;100780.28;5084173;28;20462;-68
2023/09/23 02:29:47;;;;;;;21.73;10.38;;;;;;;10.49;100.00;100777.81;5077596;28;20511;-68
2023/09/23 02:32:12;;;;;;;19.35;9.82;;;;;;;10.48;100.00;100782.28;5086889;28;20098;-68
2023/09/23 02:34:39;;;;;;;14.82;10.23;;;;;;;10.49;100.00;100789.25;5087114;28;20040;-69
2023/09/23 02:37:04;;;;;;;17.02;9.60;;;;;;;10.50;100.00;100798.03;5081705;28;20028;-68
2023/09/23 02:39:29;;;;;;;15.43;9.52;;;;;;;10.49;100.00;100805.19;5077791;28;20024;-69
2023/09/23 02:41:55;;;;;;;16.92;9.43;;;;;;;10.48;100.00;100803.53;5083753;28;20024;-69
2023/09/23 02:44:22;;;;;;;15.57;9.10;;;;;;;10.45;100.00;100793.25;5083401;28;20465;-68
2023/09/23 02:46:52;;;;;;;17.73;9.55;;;;;;;10.44;100.00;100804.88;5083274;28;20116;-68
2023/09/23 02:49:19;;;;;;;16.27;9.43;;;;;;;10.43;100.00;100803.22;5080427;28;20023;-69
2023/09/23 02:51:44;;;;;;;13.85;9.00;;;;;;;10.41;100.00;100807.88;5088961;28;20080;-68
2023/09/23 02:54:11;;;;;;;13.18;8.73;;;;;;;10.40;100.00;100803.53;5081334;28;20107;-69
2023/09/23 02:56:36;;;;;;;13.93;9.10;;;;;;;10.33;100.00;100810.53;5088188;28;20028;-68
2023/09/23 02:59:11;;;;;;;16.77;8.98;;;;;;;10.33;100.00;100815.00;5087818;28;20036;-69
2023/09/23 03:01:39;;;;;;;14.55;8.75;;;;;;;10.31;100.00;100827.63;5084022;28;20037;-68
2023/09/23 03:04:16;;;;;;;14.43;8.25;;;;;;;10.28;100.00;100820.00;5085414;28;20020;-69
2023/09/23 03:06:41;;;;;;;14.73;8.00;;;;;;;10.23;100.00;100817.84;5083443;28;20090;-69
2023/09/23 03:09:10;;;;;;;20.27;8.57;;;;;;;10.23;100.00;100816.03;5080074;28;20032;-69
2023/09/23 03:11:42;;;;;;;14.65;8.13;;;;;;;10.18;100.00;100812.19;5081501;28;20473;-68
2023/09/23 03:14:12;;;;;;;15.57;8.15;;;;;;;10.19;100.00;100816.50;5082085;28;20031;-70
2023/09/23 03:16:44;;;;;;;19.20;8.27;;;;;;;10.18;100.00;100823.63;5079633;28;20020;-69
2023/09/23 03:19:10;;;;;;;14.07;8.05;;;;;;;10.16;100.00;100825.63;5084542;28;20108;-68
2023/09/23 03:21:42;;;;;;;17.92;8.23;;;;;;;10.13;100.00;100830.47;5087555;28;20020;-68
2023/09/23 03:24:08;;;;;;;17.83;7.70;;;;;;;10.12;100.00;100824.31;5087450;28;20058;-69
2023/09/23 03:26:33;;;;;;;16.80;7.47;;;;;;;10.11;100.00;100835.91;5082168;28;20583;-69
2023/09/23 03:28:58;;;;;;;14.43;7.55;;;;;;;10.10;100.00;100830.75;5087356;28;20399;-68
2023/09/23 03:31:24;;;;;;;17.98;7.78;;;;;;;10.12;100.00;100847.34;5081819;28;20024;-69
2023/09/23 03:33:49;;;;;;;13.55;7.13;;;;;;;10.10;100.00;100838.72;5088327;28;20020;-69
2023/09/23 03:36:15;;;;;;;13.48;7.45;;;;;;;10.11;100.00;100841.19;5079208;28;20020;-68
2023/09/23 03:38:41;;;;;;;13.68;7.07;;;;;;;10.11;100.00;100838.56;5084279;28;20024;-69
2023/09/23 03:41:08;;;;;;;13.40;7.72;;;;;;;10.10;100.00;100850.16;5078541;28;20095;-69
2023/09/23 03:43:33;;;;;;;13.73;7.32;;;;;;;10.12;100.00;100850.84;5079099;28;20104;-68
2023/09/23 03:45:59;;;;;;;14.00;6.97;;;;;;;10.12;100.00;100852.66;5076697;28;20102;-68
2023/09/23 03:48:25;;;;;;;16.50;7.20;;;;;;;10.11;100.00;100846.50;5085932;28;20020;-69
2023/09/23 03:50:52;;;;;;;13.85;7.15;;;;;;;10.12;100.00;100856.16;5083739;28;20115;-69
2023/09/23 03:53:21;;;;;;;13.70;7.68;;;;;;;10.13;100.00;100849.84;5084067;28;20031;-69
2023/09/23 03:55:46;;;;;;;13.30;7.55;;;;;;;10.12;100.00;100848.19;5078975;28;20036;-68
2023/09/23 03:58:12;;;;;;;14.60;7.68;;;;;;;10.16;100.00;100848.69;5086829;28;20115;-69
2023/09/23 04:00:37;;;;;;;17.17;8.10;;;;;;;10.15;100.00;100850.50;5085373;28;20019;-69
2023/09/23 04:03:02;;;;;;;15.13;7.68;;;;;;;10.17;100.00;100845.88;5087571;28;20016;-69
2023/09/23 04:05:30;;;;;;;13.80;7.28;;;;;;;10.19;100.00;100845.69;5081846;28;20055;-69
2023/09/23 04:07:56;;;;;;;12.90;7.47;;;;;;;10.17;100.00;100859.13;5078503;28;20028;-68
2023/09/23 04:10:23;;;;;;;17.63;7.93;;;;;;;10.19;100.00;100857.13;5086117;28;20028;-69
2023/09/23 04:12:49;;;;;;;15.65;7.40;;;;;;;10.22;100.00;100863.97;5082005;28;20038;-69
2023/09/23 04:15:15;;;;;;;15.02;7.55;;;;;;;10.23;100.00;100868.28;5077013;28;20081;-69
2023/09/23 04:17:40;;;;;;;14.40;7.20;;;;;;;10.21;100.00;100868.44;5086908;28;20008;-69
2023/09/23 04:20:10;;;;;;;13.65;7.53;;;;;;;10.18;100.00;100870.59;5081423;28;20086;-69
2023/09/23 04:22:36;;;;;;;14.40;7.45;;;;;;;10.18;100.00;100875.88;5081312;28;20012;-69
2023/09/23 04:25:04;;;;;;;13.48;7.10;;;;;;;10.14;100.00;100867.44;5089035;28;20024;-68
2023/09/23 04:27:30;;;;;;;18.40;7.90;;;;;;;10.17;100.00;100876.88;5091307;28;20024;-69
2023/09/23 04:29:55;;;;;;;14.50;6.80;;;;;;;10.15;100.00;100894.81;5089759;28;20027;-69
2023/09/23 04:32:21;;;;;;;16.85;6.85;;;;;;;10.15;100.00;100892.16;5090145;28;20089;-69
2023/09/23 04:34:46;;;;;;;13.93;7.28;;;;;;;10.13;100.00;100894.13;5084886;28;20028;-69
2023/09/23 04:37:12;;;;;;;14.25;7.40;;;;;;;10.15;100.00;100897.47;5090169;28;20107;-69
2023/09/23 04:39:38;;;;;;;13.68;7.18;;;;;;;10.13;100.00;100900.28;5083648;28;20100;-69
2023/09/23 04:42:04;;;;;;;13.35;7.05;;;;;;;10.12;100.00;100895.97;5089481;28;20110;-69
2023/09/23 04:44:30;;;;;;;12.65;7.10;;;;;;;10.14;100.00;100899.28;5080570;28;20473;-69
2023/09/23 04:46:56;;;;;;;14.70;7.22;;;;;;;10.14;100.00;100906.41;5090140;28;20031;-69
2023/09/23 04:49:21;;;;;;;12.05;6.88;;;;;;;10.17;100.00;100901.59;5083064;28;20032;-69
2023/09/23 04:51:46;;;;;;;13.15;6.60;;;;;;;10.20;100.00;100908.41;5085416;28;20027;-69
2023/09/23 04:54:12;;;;;;;12.77;6.68;;;;;;;10.22;100.00;100911.75;5087817;28;20545;-69
2023/09/23 04:56:41;;;;;;;11.48;6.60;;;;;;;10.24;100.00;100915.06;5088305;28;20027;-69
2023/09/23 04:59:07;;;;;;;12.75;6.82;;;;;;;10.23;100.00;100911.56;5086876;28;20104;-69
2023/09/23 05:01:32;;;;;;;14.07;7.00;;;;;;;10.27;100.00;100921.84;5086103;28;20505;-69
2023/09/23 05:03:59;;;;;;;12.52;6.70;;;;;;;10.24;100.00;100910.56;5087504;28;20028;-69
2023/09/23 05:06:25;;;;;;;17.45;7.07;;;;;;;10.25;100.00;100924.69;5084135;28;20470;-69
2023/09/23 05:08:50;;;;;;;14.30;7.15;;;;;;;10.26;100.00;100917.53;5081020;28;20031;-69
2023/09/23 05:11:17;;;;;;;14.18;6.90;;;;;;;10.24;100.00;100926.50;5085830;28;20028;-69
2023/09/23 05:13:42;;;;;;;14.48;7.15;;;;;;;10.22;100.00;100935.63;5085358;28;20548;-69
2023/09/23 05:16:07;;;;;;;11.02;6.68;;;;;;;10.18;100.00;100943.06;5087912;28;20028;-69
2023/09/23 05:18:33;;;;;;;13.10;7.05;;;;;;;10.15;100.00;100943.41;5081564;28;20547;-69
2023/09/23 05:20:58;;;;;;;16.17;7.13;;;;;;;10.17;100.00;100949.38;5085213;28;20042;-69
2023/09/23 05:23:23;;;;;;;13.40;7.25;;;;;;;10.16;100.00;100947.72;5087517;28;20095;-69
2023/09/23 05:25:50;;;;;;;11.75;6.75;;;;;;;10.15;100.00;100945.22;5086779;28;20027;-69
2023/09/23 05:28:15;;;;;;;14.15;6.88;;;;;;;10.15;100.00;100956.66;5090095;28;20028;-69
2023/09/23 05:30:41;;;;;;;16.48;7.50;;;;;;;10.13;100.00;100963.13;5089432;28;20028;-69
2023/09/23 05:33:06;;;;;;;12.30;7.03;;;;;;;10.11;100.00;100968.56;5086545;28;20081;-69
2023/09/23 05:35:32;;;;;;;17.40;7.10;;;;;;;10.10;100.00;100979.34;5088914;28;20489;-69
2023/09/23 05:37:57;;;;;;;13.63;7.10;;;;;;;10.08;100.00;100979.53;5087367;28;20077;-69
2023/09/23 05:42:51;;;;;;;13.20;7.55;;;;;;;10.06;100.00;100988.63;5085004;28;20048;-69
2023/09/23 05:45:18;;;;;;;13.75;7.82;;;;;;;10.06;100.00;100994.78;5088296;28;20499;-69
2023/09/23 05:47:45;;;;;;;17.60;7.38;;;;;;;10.05;100.00;100992.28;5080143;28;20063;-70
2023/09/23 05:50:10;;;;;;;10.98;7.43;;;;;;;10.03;100.00;100997.75;5082450;28;20089;-69
2023/09/23 05:52:36;;;;;;;14.30;7.35;;;;;;;10.03;100.00;101000.41;5088533;28;20020;-69
2023/09/23 05:55:03;;;;;;;13.82;7.28;;;;;;;10.02;100.00;101014.66;5077597;28;20016;-69
2023/09/23 05:57:29;;;;;;;11.77;7.43;;;;;;;10.02;100.00;101000.56;5082839;28;20098;-69
2023/09/23 05:59:54;;;;;;;16.67;7.18;;;;;;;9.98;100.00;101016.00;5083996;28;20104;-69
2023/09/23 06:02:21;;;;;;;11.52;6.72;;;;;;;10.01;100.00;101020.97;5081910;28;20065;-69
2023/09/23 06:04:46;;;;;;;20.25;7.28;;;;;;;10.02;100.00;101027.94;5084744;28;20520;-68
2023/09/23 06:07:12;;;;;;;13.77;7.28;;;;;;;10.02;100.00;101035.91;5081545;28;20020;-69
2023/09/23 06:09:37;;;;;;;12.05;6.97;;;;;;;10.02;100.00;101035.06;5078200;28;20045;-69
2023/09/23 06:12:02;;;;;;;16.50;7.43;;;;;;;10.02;100.00;101045.69;5083174;28;20599;-69
2023/09/23 06:14:28;;;;;;;17.58;6.93;;;;;;;10.02;100.00;101041.19;5086377;28;20047;-69
2023/09/23 06:16:53;;;;;;;13.85;7.43;;;;;;;10.01;100.00;101052.81;5079398;28;20496;-69
2023/09/23 06:19:18;;;;;;;12.60;6.78;;;;;;;10.05;100.00;101055.97;5079596;28;20025;-69
2023/09/23 06:21:43;;;;;;;12.70;7.32;;;;;;;10.05;100.00;101062.09;5089601;28;20547;-69
2023/09/23 06:24:10;;;;;;;23.30;7.35;;;;;;;10.07;100.00;101061.94;5085218;28;20058;-69
2023/09/23 06:26:37;;;;;;;15.23;7.25;;;;;;;10.10;100.00;101073.06;5085461;28;20023;-69
2023/09/23 06:29:04;;;;;;;16.67;7.88;;;;;;;10.12;100.00;101073.75;5094179;28;20020;-69
2023/09/23 06:31:30;;;;;;;12.15;7.05;;;;;;;10.15;100.00;101073.44;5084802;28;20027;-69
2023/09/23 06:33:55;;;;;;;11.95;6.88;;;;;;;10.17;100.00;101075.91;5089383;28;20088;-69
2023/09/23 06:36:20;;;;;;;9.93;7.00;;;;;;;10.19;100.00;101074.75;5088820;28;20016;-68
2023/09/23 06:38:45;;;;;;;11.90;7.20;;;;;;;10.22;100.00;101090.41;5084810;28;20051;-69
2023/09/23 06:41:11;;;;;;;15.82;7.18;;;;;;;10.23;100.00;101075.28;5081122;28;20024;-69
2023/09/23 06:43:36;;;;;;;12.68;7.22;;;;;;;10.27;100.00;101079.28;5087636;28;20023;-69
2023/09/23 06:46:01;;;;;;;13.60;7.03;;;;;;;10.30;100.00;101086.09;5091742;28;20021;-69
2023/09/23 06:48:27;;;;;;;16.10;7.72;;;;;;;10.32;100.00;101092.91;5085143;28;20499;-69
2023/09/23 06:51:02;;;;;;;13.75;7.63;;;;;;;10.38;100.00;101104.69;5082980;28;20148;-67
2023/09/23 06:53:29;;;;;;;16.38;7.53;;;;;;;10.41;100.00;101115.84;5077903;28;20258;-69
2023/09/23 06:55:54;;;;;;;12.93;7.82;;;;;;;10.46;100.00;101112.69;5078135;28;20028;-69
2023/09/23 06:58:20;;;;;;;16.30;8.07;;;;;;;10.50;100.00;101114.00;5086249;28;20031;-69
2023/09/23 07:00:45;;;;;;;20.05;8.02;;;;;;;10.55;100.00;101111.69;5081790;28;20032;-69
2023/09/23 07:03:11;;;;;;;13.13;8.00;;;;;;;10.60;100.00;101114.69;5086231;28;20024;-69
2023/09/23 07:05:37;;;;;;;15.25;8.15;;;;;;;10.66;100.00;101116.69;5083912;28;20508;-69
2023/09/23 07:08:02;;;;;;;16.50;8.40;;;;;;;10.79;100.00;101132.16;5079949;28;20511;-69
2023/09/23 07:10:28;;;;;;;14.40;8.40;;;;;;;10.83;100.00;101126.34;5088716;28;20028;-69
2023/09/23 07:12:53;;;;;;;14.07;8.25;;;;;;;10.95;100.00;101139.28;5087242;28;20485;-69
2023/09/23 07:15:18;;;;;;;15.88;7.43;;;;;;;11.01;100.00;101141.31;5082477;28;20031;-69
2023/09/23 07:17:44;;;;;;;15.13;7.60;;;;;;;11.06;100.00;101137.16;5090219;28;20016;-69
2023/09/23 07:20:10;;;;;;;15.35;7.53;;;;;;;11.16;100.00;101139.63;5085031;28;20158;-69
2023/09/23 07:22:35;;;;;;;13.23;7.38;;;;;;;11.18;100.00;101141.13;5088857;28;20532;-69
2023/09/23 07:25:00;;;;;;;11.23;6.70;;;;;;;11.21;100.00;101144.44;5083948;28;20028;-69
2023/09/23 07:27:26;;;;;;;11.13;6.63;;;;;;;11.25;100.00;101151.91;5082784;28;20072;-69
2023/09/23 07:29:51;;;;;;;12.82;6.90;;;;;;;11.22;100.00;101152.25;5087858;28;20028;-69
2023/09/23 07:32:16;;;;;;;12.48;6.28;;;;;;;11.27;100.00;101155.22;5082244;28;20165;-69
2023/09/23 07:34:42;;;;;;;13.05;6.10;;;;;;;11.27;100.00;101157.88;5083491;28;20055;-69
2023/09/23 07:37:08;;;;;;;14.35;6.93;;;;;;;11.30;100.00;101160.22;5087856;28;20020;-69
2023/09/23 07:39:34;;;;;;;16.95;7.70;;;;;;;11.33;100.00;101164.38;5094849;28;20623;-69
2023/09/23 07:41:59;;;;;;;14.38;7.07;;;;;;;11.34;100.00;101172.19;5083675;28;20107;-69
2023/09/23 07:44:24;;;;;;;16.40;7.95;;;;;;;11.40;100.00;101176.84;5082552;28;20021;-69
2023/09/23 07:46:49;;;;;;;15.07;8.57;;;;;;;11.47;100.00;101175.16;5080810;28;20024;-69
2023/09/23 07:49:15;;;;;;;16.67;9.18;;;;;;;11.58;100.00;101175.81;5086542;28;20024;-69
2023/09/23 07:51:40;;;;;;;19.58;8.93;;;;;;;11.62;100.00;101180.63;5092306;28;20023;-69
2023/09/23 07:54:06;;;;;;;14.15;8.60;;;;;;;11.76;100.00;101195.91;5095636;28;20023;-69
2023/09/23 07:56:31;;;;;;;15.75;9.45;;;;;;;11.87;100.00;101194.75;5090190;28;20076;-69
2023/09/23 07:58:56;;;;;;;14.00;8.90;;;;;;;11.92;100.00;101202.22;5090029;28;20084;-69
2023/09/23 08:01:22;;;;;;;14.27;9.20;;;;;;;11.98;100.00;101201.53;5091107;28;20028;-69
2023/09/23 08:03:47;;;;;;;15.07;9.18;;;;;;;12.02;100.00;101203.69;5091041;28;20035;-69
2023/09/23 08:06:12;;;;;;;10.90;8.68;;;;;;;12.03;100.00;101192.03;5086860;28;20110;-69
2023/09/23 08:08:38;;;;;;;15.38;9.68;;;;;;;12.20;100.00;101216.78;5089792;28;20066;-68
2023/09/23 08:11:03;;;;;;;16.48;9.23;;;;;;;12.35;100.00;101216.88;5086034;28;20028;-69
2023/09/23 08:13:28;;;;;;;12.20;8.63;;;;;;;12.37;100.00;101225.53;5090716;28;20477;-68
2023/09/23 08:15:58;;;;;;;15.95;8.30;;;;;;;12.46;100.00;101223.69;5086025;28;20055;-68
2023/09/23 08:18:23;;;;;;;16.67;8.57;;;;;;;12.50;100.00;101225.81;5085343;28;20075;-69
2023/09/23 08:20:56;;;;;;;13.25;7.28;;;;;;;12.51;100.00;101224.81;5090529;28;20404;-69
2023/09/23 08:23:21;;;;;;;14.18;7.35;;;;;;;12.48;100.00;101222.50;5091970;28;20111;-68
2023/09/23 08:25:46;;;;;;;10.85;6.53;;;;;;;12.55;100.00;101230.63;5090640;28;20157;-69
2023/09/23 08:28:13;;;;;;;11.55;5.90;;;;;;;12.64;100.00;101245.56;5087649;28;20039;-69
2023/09/23 08:30:42;;;;;;;9.32;5.38;;;;;;;12.75;100.00;101249.69;5091320;28;20028;-69
2023/09/23 08:33:07;;;;;;;11.10;5.18;;;;;;;12.81;100.00;101256.97;5088464;28;20020;-68
2023/09/23 08:35:33;;;;;;;13.63;5.40;;;;;;;12.85;100.00;101255.63;5091076;28;20028;-69
2023/09/23 08:37:58;;;;;;;8.30;4.65;;;;;;;12.86;100.00;101259.94;5086811;28;20016;-69
2023/09/23 08:40:24;;;;;;;11.35;4.85;;;;;;;12.86;100.00;101274.09;5091193;28;20462;-69
2023/09/23 08:42:54;;;;;;;8.35;4.43;;;;;;;12.89;100.00;101260.41;5086424;28;20544;-68
2023/09/23 08:45:24;;;;;;;11.35;5.32;;;;;;;12.90;100.00;101271.91;5093250;28;20027;-69
2023/09/23 08:47:50;;;;;;;8.75;5.00;;;;;;;12.92;100.00;101283.22;5081616;28;20029;-68
2023/09/23 08:50:16;;;;;;;9.55;4.93;;;;;;;12.95;100.00;101280.19;5089976;28;20024;-68
2023/09/23 08:52:42;;;;;;;10.55;5.20;;;;;;;13.07;100.00;101296.66;5090151;28;20028;-68
2023/09/23 08:55:11;;;;;;;10.15;5.80;;;;;;;13.15;100.00;101288.59;5085326;28;20025;-68
2023/09/23 08:57:37;;;;;;;10.75;5.03;;;;;;;13.22;100.00;101301.06;5091846;28;20012;-69
2023/09/23 09:00:07;;;;;;;9.82;5.45;;;;;;;13.24;100.00;101290.22;5087425;28;20028;-69
2023/09/23 09:02:33;;;;;;;9.68;5.13;;;;;;;13.31;100.00;101308.03;5086456;28;20073;-69
2023/09/23 09:04:58;;;;;;;9.95;5.30;;;;;;;13.37;100.00;101319.00;5081517;28;20116;-68
2023/09/23 09:07:33;;;;;;;10.00;5.60;;;;;;;13.38;100.00;101310.81;5090725;28;20452;-69
2023/09/23 09:09:59;;;;;;;8.57;5.45;;;;;;;13.33;100.00;101303.34;5083571;28;20115;-68
2023/09/23 09:12:24;;;;;;;9.10;5.80;;;;;;;13.38;100.00;101318.00;5091149;28;20095;-69
2023/09/23 09:14:52;;;;;;;10.43;6.00;;;;;;;13.35;100.00;101313.84;5085155;28;20484;-69
2023/09/23 09:17:20;;;;;;;12.65;5.50;;;;;;;13.29;100.00;101314.53;5075763;28;20031;-69
2023/09/23 09:19:46;;;;;;;11.68;5.60;;;;;;;13.31;100.00;101318.69;5085392;28;20022;-69
2023/09/23 09:22:13;;;;;;;10.13;5.57;;;;;;;13.32;100.00;101331.03;5088773;28;20049;-69
2023/09/23 09:24:40;;;;;;;10.85;5.93;;;;;;;13.42;100.00;101343.31;5084638;28;20104;-68
2023/09/23 09:27:12;;;;;;;11.05;5.47;;;;;;;13.52;100.00;101325.22;5087792;28;20034;-69
2023/09/23 09:29:38;;;;;;;10.77;5.50;;;;;;;13.70;100.00;101335.59;5086895;28;20016;-69
2023/09/23 09:32:06;;;;;;;12.15;5.63;;;;;;;13.87;100.00;101345.94;5085681;28;20028;-68
2023/09/23 09:34:31;;;;;;;11.95;4.65;;;;;;;13.97;100.00;101340.38;5084158;28;20008;-69
2023/09/23 09:36:57;;;;;;;8.77;4.65;;;;;;;14.00;100.00;101344.53;5087874;28;20501;-68
2023/09/23 09:39:29;;;;;;;12.18;4.82;;;;;;;13.94;99.34;101346.91;5088143;28;20023;-69
2023/09/23 09:41:58;;;;;;;9.05;4.10;;;;;;;13.88;99.03;101352.16;5089860;28;20556;-68
2023/09/23 09:44:27;;;;;;;11.23;4.28;;;;;;;13.79;98.70;101356.69;5088584;28;20054;-68
2023/09/23 09:46:54;;;;;;;9.82;4.03;;;;;;;13.69;98.67;101352.63;5083503;28;20020;-69
2023/09/23 09:49:21;;;;;;;7.32;4.18;;;;;;;13.64;98.82;101350.50;5086894;28;20522;-68
2023/09/23 09:51:48;;;;;;;12.40;4.65;;;;;;;13.64;99.40;101356.66;5089338;28;20073;-69
2023/09/23 09:54:18;;;;;;;9.63;4.75;;;;;;;13.64;99.61;101350.50;5083880;28;20028;-69
2023/09/23 09:56:46;;;;;;;13.55;4.35;;;;;;;13.65;99.78;101368.16;5085895;28;20055;-68
2023/09/23 09:59:22;;;;;;;10.27;4.70;;;;;;;13.64;100.00;101363.84;5082006;28;20028;-69
2023/09/23 10:01:52;;;;;;;9.82;4.68;;;;;;;13.66;99.66;101361.00;5081913;28;20028;-68
2023/09/23 10:04:19;;;;;;;13.80;4.82;;;;;;;13.66;99.90;101372.50;5088699;28;20070;-69
2023/09/23 10:06:53;;;;;;;9.98;5.20;;;;;;;13.73;99.51;101361.94;5088739;28;20044;-69
2023/09/23 10:09:38;;;;;;;11.52;4.95;;;;;;;13.90;99.78;101366.97;5088088;28;20024;-69
2023/09/23 10:12:04;;;;;;;11.75;5.68;;;;;;;14.12;99.88;101369.78;5085903;28;20036;-69
2023/09/23 10:14:29;;;;;;;13.02;5.35;;;;;;;14.18;98.51;101379.75;5080702;28;20032;-69
2023/09/23 10:16:59;;;;;;;8.07;5.00;;;;;;;14.21;97.92;101369.53;5075423;28;20604;-68
2023/09/23 10:19:37;;;;;;;10.90;5.20;;;;;;;14.23;97.08;101369.38;5094330;28;20024;-69
2023/09/23 10:22:13;;;;;;;8.73;5.15;;;;;;;14.22;96.75;101371.19;5089264;28;20644;-69
2023/09/23 10:24:40;;;;;;;9.82;5.30;;;;;;;14.22;96.06;101367.69;5083852;28;20023;-69
2023/09/23 10:27:06;;;;;;;9.68;5.50;;;;;;;14.33;96.73;101379.78;5080594;28;20028;-69
2023/09/23 10:29:41;;;;;;;10.70;5.90;;;;;;;14.39;96.47;101381.72;5095402;28;20020;-69
2023/09/23 10:32:14;;;;;;;9.82;5.15;;;;;;;14.39;95.91;101389.72;5079123;28;20035;-68
2023/09/23 10:34:55;;;;;;;11.07;5.47;;;;;;;14.41;96.27;101383.19;5084668;28;20024;-69
2023/09/23 10:37:32;;;;;;;10.30;5.45;;;;;;;14.47;96.34;101393.22;5087692;28;20400;-69
2023/09/23 10:40:08;;;;;;;11.88;5.60;;;;;;;14.53;96.21;101405.84;5093541;28;20473;-69
2023/09/23 10:42:34;;;;;;;8.35;4.93;;;;;;;14.59;95.61;101406.94;5083973;28;20028;-69
2023/09/23 10:45:00;;;;;;;12.35;5.45;;;;;;;14.51;94.84;101410.53;5082315;28;20500;-69
2023/09/23 10:47:25;;;;;;;14.05;5.20;;;;;;;14.43;94.55;101413.25;5085456;28;20028;-69
2023/09/23 10:49:50;;;;;;;10.43;5.40;;;;;;;14.47;94.85;101406.56;5085620;28;20063;-69
2023/09/23 10:52:16;;;;;;;8.00;5.05;;;;;;;14.56;95.14;101412.66;5089788;28;20521;-69
2023/09/23 10:54:41;;;;;;;11.07;5.22;;;;;;;14.63;94.71;101424.28;5083010;28;20024;-69
2023/09/23 10:57:07;;;;;;;10.23;5.35;;;;;;;14.72;94.88;101430.34;5082008;28;20075;-69
2023/09/23 10:59:33;;;;;;;11.32;6.25;;;;;;;14.92;95.35;101430.66;5078507;28;20016;-69
2023/09/23 11:01:58;;;;;;;7.82;4.65;;;;;;;15.01;94.84;101430.34;5080494;28;20029;-69
2023/09/23 11:04:23;;;;;;;8.98;4.53;;;;;;;15.03;93.33;101436.34;5079491;28;20027;-69
2023/09/23 11:06:50;;;;;;;8.70;4.60;;;;;;;15.06;92.95;101445.88;5082321;28;20035;-69
2023/09/23 11:09:15;;;;;;;10.48;5.47;;;;;;;15.03;92.59;101438.19;5082888;28;20024;-68